sensor_id;sensor_type;location;lat;lon;timestamp;temperature;humidity
22769;DHT22;13001;51.968;5.918;2023-08-01T10:46:15;24.90;79.40
22769;DHT22;13001;51.968;5.918;2023-08-01T10:48:50;33.70;46.30
22769;DHT22;13001;51.968;5.918;2023-08-01T10:51:18;32.40;48.00
22769;DHT22;13001;51.968;5.918;2023-08-01T10:53:46;31.40;49.10
22769;DHT22;13001;51.968;5.918;2023-08-01T10:56:18;30.60;51.30
22769;DHT22;13001;51.968;5.918;2023-08-01T10:58:47;30.10;52.60
22769;DHT22;13001;51.968;5.918;2023-08-01T11:01:15;29.70;53.70
22769;DHT22;13001;51.968;5.918;2023-08-01T11:03:42;29.40;54.90
22769;DHT22;13001;51.968;5.918;2023-08-01T11:06:10;29.20;55.50
22769;DHT22;13001;51.968;5.918;2023-08-01T11:08:39;29.00;55.70
22769;DHT22;13001;51.968;5.918;2023-08-01T11:11:10;28.80;56.50
22769;DHT22;13001;51.968;5.918;2023-08-01T11:13:37;28.70;57.00
22769;DHT22;13001;51.968;5.918;2023-08-01T11:16:05;28.70;57.60
22769;DHT22;13001;51.968;5.918;2023-08-01T11:18:47;28.80;57.70
22769;DHT22;13001;51.968;5.918;2023-08-01T11:21:24;28.90;57.40
22769;DHT22;13001;51.968;5.918;2023-08-01T11:23:45;28.90;57.40
22769;DHT22;13001;51.968;5.918;2023-08-01T11:26:13;28.80;57.20
22769;DHT22;13001;51.968;5.918;2023-08-01T11:28:40;28.60;56.50
22769;DHT22;13001;51.968;5.918;2023-08-01T11:31:12;28.50;56.40
22769;DHT22;13001;51.968;5.918;2023-08-01T11:33:39;28.50;56.90
22769;DHT22;13001;51.968;5.918;2023-08-01T11:36:08;28.50;57.20
22769;DHT22;13001;51.968;5.918;2023-08-01T11:38:36;28.40;57.40
22769;DHT22;13001;51.968;5.918;2023-08-01T11:41:05;28.20;57.50
22769;DHT22;13001;51.968;5.918;2023-08-01T11:43:42;28.00;58.00
22769;DHT22;13001;51.968;5.918;2023-08-01T11:46:10;27.70;58.10
22769;DHT22;13001;51.968;5.918;2023-08-01T11:48:37;27.40;58.70
22769;DHT22;13001;51.968;5.918;2023-08-01T11:51:03;27.20;59.40
22769;DHT22;13001;51.968;5.918;2023-08-01T11:53:30;27.30;59.80
22769;DHT22;13001;51.968;5.918;2023-08-01T11:55:59;27.30;59.80
22769;DHT22;13001;51.968;5.918;2023-08-01T11:58:33;27.40;59.80
22769;DHT22;13001;51.968;5.918;2023-08-01T12:01:03;27.50;59.70
22769;DHT22;13001;51.968;5.918;2023-08-01T12:03:30;27.30;59.40
22769;DHT22;13001;51.968;5.918;2023-08-01T12:06:05;27.00;59.90
22769;DHT22;13001;51.968;5.918;2023-08-01T12:08:34;26.90;60.80
22769;DHT22;13001;51.968;5.918;2023-08-01T12:11:00;27.10;60.70
22769;DHT22;13001;51.968;5.918;2023-08-01T12:13:28;27.20;60.40
22769;DHT22;13001;51.968;5.918;2023-08-01T12:15:55;27.40;60.60
22769;DHT22;13001;51.968;5.918;2023-08-01T12:20:50;27.40;60.00
22769;DHT22;13001;51.968;5.918;2023-08-01T12:23:18;27.10;60.00
22769;DHT22;13001;51.968;5.918;2023-08-01T12:25:44;26.90;60.70
22769;DHT22;13001;51.968;5.918;2023-08-01T12:28:15;26.70;61.10
22769;DHT22;13001;51.968;5.918;2023-08-01T12:30:43;26.30;61.40
22769;DHT22;13001;51.968;5.918;2023-08-01T12:33:10;26.00;62.10
22769;DHT22;13001;51.968;5.918;2023-08-01T12:35:40;25.50;62.70
22769;DHT22;13001;51.968;5.918;2023-08-01T12:38:07;25.10;63.50
22769;DHT22;13001;51.968;5.918;2023-08-01T12:40:34;24.80;64.40
22769;DHT22;13001;51.968;5.918;2023-08-01T12:43:01;24.60;65.10
22769;DHT22;13001;51.968;5.918;2023-08-01T12:45:28;24.60;65.50
22769;DHT22;13001;51.968;5.918;2023-08-01T12:47:55;24.90;65.50
22769;DHT22;13001;51.968;5.918;2023-08-01T12:50:22;25.20;64.70
22769;DHT22;13001;51.968;5.918;2023-08-01T12:52:48;25.30;64.30
22769;DHT22;13001;51.968;5.918;2023-08-01T12:55:15;25.40;64.00
22769;DHT22;13001;51.968;5.918;2023-08-01T12:57:42;25.40;64.30
22769;DHT22;13001;51.968;5.918;2023-08-01T13:00:13;25.50;64.30
22769;DHT22;13001;51.968;5.918;2023-08-01T13:02:41;25.40;64.00
22769;DHT22;13001;51.968;5.918;2023-08-01T13:05:08;25.20;64.30
22769;DHT22;13001;51.968;5.918;2023-08-01T13:07:35;24.90;64.80
22769;DHT22;13001;51.968;5.918;2023-08-01T13:10:01;24.60;65.50
22769;DHT22;13001;51.968;5.918;2023-08-01T13:12:28;24.30;66.20
22769;DHT22;13001;51.968;5.918;2023-08-01T13:14:55;24.30;66.80
22769;DHT22;13001;51.968;5.918;2023-08-01T13:17:23;24.50;66.90
22769;DHT22;13001;51.968;5.918;2023-08-01T13:19:50;24.80;66.90
22769;DHT22;13001;51.968;5.918;2023-08-01T13:22:17;25.20;66.10
22769;DHT22;13001;51.968;5.918;2023-08-01T13:24:45;25.40;65.70
22769;DHT22;13001;51.968;5.918;2023-08-01T13:27:13;25.50;65.50
22769;DHT22;13001;51.968;5.918;2023-08-01T13:29:39;25.50;65.40
22769;DHT22;13001;51.968;5.918;2023-08-01T13:32:06;25.40;65.60
22769;DHT22;13001;51.968;5.918;2023-08-01T13:34:33;25.30;65.80
22769;DHT22;13001;51.968;5.918;2023-08-01T13:37:04;25.30;66.00
22769;DHT22;13001;51.968;5.918;2023-08-01T13:39:34;25.10;66.10
22769;DHT22;13001;51.968;5.918;2023-08-01T13:42:01;24.90;66.50
22769;DHT22;13001;51.968;5.918;2023-08-01T13:44:28;24.70;66.70
22769;DHT22;13001;51.968;5.918;2023-08-01T13:46:55;24.60;66.80
22769;DHT22;13001;51.968;5.918;2023-08-01T13:49:22;24.40;67.20
22769;DHT22;13001;51.968;5.918;2023-08-01T13:51:50;24.50;67.90
22769;DHT22;13001;51.968;5.918;2023-08-01T13:54:17;24.80;67.40
22769;DHT22;13001;51.968;5.918;2023-08-01T13:56:44;25.00;66.50
22769;DHT22;13001;51.968;5.918;2023-08-01T13:59:11;25.00;66.10
22769;DHT22;13001;51.968;5.918;2023-08-01T14:01:38;25.00;65.90
22769;DHT22;13001;51.968;5.918;2023-08-01T14:04:04;24.90;65.90
22769;DHT22;13001;51.968;5.918;2023-08-01T14:06:31;24.60;66.10
22769;DHT22;13001;51.968;5.918;2023-08-01T14:08:59;24.30;66.80
22769;DHT22;13001;51.968;5.918;2023-08-01T14:11:26;24.10;67.40
22769;DHT22;13001;51.968;5.918;2023-08-01T14:13:53;24.00;67.70
22769;DHT22;13001;51.968;5.918;2023-08-01T14:16:20;24.10;67.60
22769;DHT22;13001;51.968;5.918;2023-08-01T14:18:46;24.30;67.50
22769;DHT22;13001;51.968;5.918;2023-08-01T14:21:14;24.40;67.00
22769;DHT22;13001;51.968;5.918;2023-08-01T14:23:41;24.60;66.60
22769;DHT22;13001;51.968;5.918;2023-08-01T14:26:08;24.60;66.40
22769;DHT22;13001;51.968;5.918;2023-08-01T14:28:35;24.50;66.40
22769;DHT22;13001;51.968;5.918;2023-08-01T14:31:03;24.40;66.60
22769;DHT22;13001;51.968;5.918;2023-08-01T14:33:30;24.40;66.80
22769;DHT22;13001;51.968;5.918;2023-08-01T14:35:57;24.50;66.80
22769;DHT22;13001;51.968;5.918;2023-08-01T14:38:24;24.70;66.50
22769;DHT22;13001;51.968;5.918;2023-08-01T14:40:51;24.80;66.30
22769;DHT22;13001;51.968;5.918;2023-08-01T14:43:19;24.80;66.00
22769;DHT22;13001;51.968;5.918;2023-08-01T14:45:46;24.70;65.90
22769;DHT22;13001;51.968;5.918;2023-08-01T14:48:13;24.70;66.20
22769;DHT22;13001;51.968;5.918;2023-08-01T14:50:40;24.60;66.30
22769;DHT22;13001;51.968;5.918;2023-08-01T14:53:06;24.70;67.10
22769;DHT22;13001;51.968;5.918;2023-08-01T14:55:33;24.70;66.30
22769;DHT22;13001;51.968;5.918;2023-08-01T14:58:00;24.60;66.30
22769;DHT22;13001;51.968;5.918;2023-08-01T15:00:27;24.30;66.40
22769;DHT22;13001;51.968;5.918;2023-08-01T15:02:56;24.00;66.80
22769;DHT22;13001;51.968;5.918;2023-08-01T15:05:24;23.70;67.60
22769;DHT22;13001;51.968;5.918;2023-08-01T15:07:50;23.50;68.10
22769;DHT22;13001;51.968;5.918;2023-08-01T15:10:18;23.40;68.30
22769;DHT22;13001;51.968;5.918;2023-08-01T15:12:45;23.30;68.60
22769;DHT22;13001;51.968;5.918;2023-08-01T15:15:11;23.20;68.90
22769;DHT22;13001;51.968;5.918;2023-08-01T15:17:38;23.00;69.20
22769;DHT22;13001;51.968;5.918;2023-08-01T15:20:05;22.80;69.60
22769;DHT22;13001;51.968;5.918;2023-08-01T15:22:32;22.70;70.00
22769;DHT22;13001;51.968;5.918;2023-08-01T15:24:59;22.50;70.20
22769;DHT22;13001;51.968;5.918;2023-08-01T15:27:26;22.40;70.60
22769;DHT22;13001;51.968;5.918;2023-08-01T15:29:52;22.40;70.90
22769;DHT22;13001;51.968;5.918;2023-08-01T15:32:19;22.50;70.90
22769;DHT22;13001;51.968;5.918;2023-08-01T15:34:46;22.50;70.90
22769;DHT22;13001;51.968;5.918;2023-08-01T15:37:15;22.70;70.80
22769;DHT22;13001;51.968;5.918;2023-08-01T15:39:42;22.80;70.40
22769;DHT22;13001;51.968;5.918;2023-08-01T15:42:10;23.00;70.10
22769;DHT22;13001;51.968;5.918;2023-08-01T15:44:37;23.10;70.00
22769;DHT22;13001;51.968;5.918;2023-08-01T15:47:05;23.10;69.70
22769;DHT22;13001;51.968;5.918;2023-08-01T15:49:31;23.20;69.50
22769;DHT22;13001;51.968;5.918;2023-08-01T15:51:58;23.30;69.50
22769;DHT22;13001;51.968;5.918;2023-08-01T15:54:25;23.30;69.40
22769;DHT22;13001;51.968;5.918;2023-08-01T15:56:52;23.30;69.30
22769;DHT22;13001;51.968;5.918;2023-08-01T15:59:19;23.30;69.30
22769;DHT22;13001;51.968;5.918;2023-08-01T16:01:46;23.10;69.40
22769;DHT22;13001;51.968;5.918;2023-08-01T16:04:13;22.90;69.80
22769;DHT22;13001;51.968;5.918;2023-08-01T16:06:40;22.60;70.20
22769;DHT22;13001;51.968;5.918;2023-08-01T16:09:07;22.30;71.00
22769;DHT22;13001;51.968;5.918;2023-08-01T16:11:33;22.10;71.70
22769;DHT22;13001;51.968;5.918;2023-08-01T16:14:00;21.90;73.20
22769;DHT22;13001;51.968;5.918;2023-08-01T16:16:27;21.70;72.70
22769;DHT22;13001;51.968;5.918;2023-08-01T16:18:54;21.50;73.20
22769;DHT22;13001;51.968;5.918;2023-08-01T16:21:21;21.40;73.60
22769;DHT22;13001;51.968;5.918;2023-08-01T16:23:48;21.40;73.80
22769;DHT22;13001;51.968;5.918;2023-08-01T16:26:16;21.30;73.90
22769;DHT22;13001;51.968;5.918;2023-08-01T16:28:49;21.20;74.20
22769;DHT22;13001;51.968;5.918;2023-08-01T16:31:16;21.00;74.40
22769;DHT22;13001;51.968;5.918;2023-08-01T16:33:44;20.80;75.20
22769;DHT22;13001;51.968;5.918;2023-08-01T16:36:12;20.60;76.00
22769;DHT22;13001;51.968;5.918;2023-08-01T16:38:39;20.40;79.00
22769;DHT22;13001;51.968;5.918;2023-08-01T16:41:07;20.40;80.90
22769;DHT22;13001;51.968;5.918;2023-08-01T16:43:34;20.40;82.10
22769;DHT22;13001;51.968;5.918;2023-08-01T16:46:02;20.40;82.60
22769;DHT22;13001;51.968;5.918;2023-08-01T16:48:29;20.40;82.90
22769;DHT22;13001;51.968;5.918;2023-08-01T16:50:58;20.40;83.10
22769;DHT22;13001;51.968;5.918;2023-08-01T16:53:26;20.40;83.30
22769;DHT22;13001;51.968;5.918;2023-08-01T16:55:53;20.50;83.30
22769;DHT22;13001;51.968;5.918;2023-08-01T16:58:22;20.60;83.50
22769;DHT22;13001;51.968;5.918;2023-08-01T17:00:52;20.70;83.20
22769;DHT22;13001;51.968;5.918;2023-08-01T17:03:20;20.90;82.90
22769;DHT22;13001;51.968;5.918;2023-08-01T17:05:47;21.10;82.20
22769;DHT22;13001;51.968;5.918;2023-08-01T17:08:15;21.30;81.60
22769;DHT22;13001;51.968;5.918;2023-08-01T17:10:42;21.50;80.70
22769;DHT22;13001;51.968;5.918;2023-08-01T17:13:10;21.70;79.80
22769;DHT22;13001;51.968;5.918;2023-08-01T17:15:38;21.90;79.40
22769;DHT22;13001;51.968;5.918;2023-08-01T17:18:05;21.90;78.80
22769;DHT22;13001;51.968;5.918;2023-08-01T17:20:33;22.00;78.50
22769;DHT22;13001;51.968;5.918;2023-08-01T17:23:02;22.00;78.10
22769;DHT22;13001;51.968;5.918;2023-08-01T17:25:30;22.10;77.80
22769;DHT22;13001;51.968;5.918;2023-08-01T17:27:57;22.20;77.90
22769;DHT22;13001;51.968;5.918;2023-08-01T17:30:25;22.20;77.70
22769;DHT22;13001;51.968;5.918;2023-08-01T17:32:52;22.30;77.40
22769;DHT22;13001;51.968;5.918;2023-08-01T17:35:20;22.30;77.10
22769;DHT22;13001;51.968;5.918;2023-08-01T17:37:47;22.30;77.00
22769;DHT22;13001;51.968;5.918;2023-08-01T17:40:15;22.40;76.70
22769;DHT22;13001;51.968;5.918;2023-08-01T17:42:43;22.40;76.50
22769;DHT22;13001;51.968;5.918;2023-08-01T17:45:11;22.30;75.90
22769;DHT22;13001;51.968;5.918;2023-08-01T17:47:39;22.30;75.30
22769;DHT22;13001;51.968;5.918;2023-08-01T17:50:06;22.20;76.00
22769;DHT22;13001;51.968;5.918;2023-08-01T17:52:35;22.10;75.70
22769;DHT22;13001;51.968;5.918;2023-08-01T17:55:02;22.00;75.40
22769;DHT22;13001;51.968;5.918;2023-08-01T17:57:30;21.80;75.10
22769;DHT22;13001;51.968;5.918;2023-08-01T17:59:58;21.70;74.90
22769;DHT22;13001;51.968;5.918;2023-08-01T18:02:25;21.50;75.10
22769;DHT22;13001;51.968;5.918;2023-08-01T18:04:56;21.50;75.50
22769;DHT22;13001;51.968;5.918;2023-08-01T18:07:23;21.40;75.60
22769;DHT22;13001;51.968;5.918;2023-08-01T18:09:51;21.40;75.70
22769;DHT22;13001;51.968;5.918;2023-08-01T18:12:18;21.40;75.90
22769;DHT22;13001;51.968;5.918;2023-08-01T18:14:46;21.40;75.90
22769;DHT22;13001;51.968;5.918;2023-08-01T18:17:14;21.40;76.00
22769;DHT22;13001;51.968;5.918;2023-08-01T18:19:41;21.40;75.90
22769;DHT22;13001;51.968;5.918;2023-08-01T18:22:09;21.30;76.00
22769;DHT22;13001;51.968;5.918;2023-08-01T18:24:38;21.30;76.10
22769;DHT22;13001;51.968;5.918;2023-08-01T18:27:06;21.30;76.20
22769;DHT22;13001;51.968;5.918;2023-08-01T18:29:33;21.30;76.20
22769;DHT22;13001;51.968;5.918;2023-08-01T18:32:01;21.30;76.20
22769;DHT22;13001;51.968;5.918;2023-08-01T18:34:28;21.30;76.60
22769;DHT22;13001;51.968;5.918;2023-08-01T18:36:56;21.30;76.70
22769;DHT22;13001;51.968;5.918;2023-08-01T18:39:23;21.20;76.70
22769;DHT22;13001;51.968;5.918;2023-08-01T18:41:51;21.20;76.70
22769;DHT22;13001;51.968;5.918;2023-08-01T18:44:20;21.10;76.80
22769;DHT22;13001;51.968;5.918;2023-08-01T18:46:48;21.10;76.80
22769;DHT22;13001;51.968;5.918;2023-08-01T18:49:15;21.00;76.70
22769;DHT22;13001;51.968;5.918;2023-08-01T18:51:43;21.00;76.70
22769;DHT22;13001;51.968;5.918;2023-08-01T18:54:10;20.90;76.60
22769;DHT22;13001;51.968;5.918;2023-08-01T18:56:40;20.90;76.60
22769;DHT22;13001;51.968;5.918;2023-08-01T18:59:08;20.80;76.80
22769;DHT22;13001;51.968;5.918;2023-08-01T19:01:35;20.70;77.00
22769;DHT22;13001;51.968;5.918;2023-08-01T19:04:04;20.70;77.20
22769;DHT22;13001;51.968;5.918;2023-08-01T19:06:32;20.60;77.30
22769;DHT22;13001;51.968;5.918;2023-08-01T19:08:59;20.60;77.60
22769;DHT22;13001;51.968;5.918;2023-08-01T19:11:27;20.60;77.90
22769;DHT22;13001;51.968;5.918;2023-08-01T19:13:56;20.60;78.20
22769;DHT22;13001;51.968;5.918;2023-08-01T19:16:24;20.50;79.30
22769;DHT22;13001;51.968;5.918;2023-08-01T19:18:51;20.50;78.70
22769;DHT22;13001;51.968;5.918;2023-08-01T19:21:19;20.40;79.00
22769;DHT22;13001;51.968;5.918;2023-08-01T19:23:47;20.40;80.20
22769;DHT22;13001;51.968;5.918;2023-08-01T19:26:15;20.40;79.90
22769;DHT22;13001;51.968;5.918;2023-08-01T19:28:43;20.40;80.20
22769;DHT22;13001;51.968;5.918;2023-08-01T19:31:11;20.40;80.50
22769;DHT22;13001;51.968;5.918;2023-08-01T19:33:38;20.30;80.80
22769;DHT22;13001;51.968;5.918;2023-08-01T19:36:06;20.30;81.20
22769;DHT22;13001;51.968;5.918;2023-08-01T19:38:35;20.30;81.30
22769;DHT22;13001;51.968;5.918;2023-08-01T19:41:02;20.30;81.60
22769;DHT22;13001;51.968;5.918;2023-08-01T19:43:30;20.20;81.70
22769;DHT22;13001;51.968;5.918;2023-08-01T19:45:59;20.20;81.90
22769;DHT22;13001;51.968;5.918;2023-08-01T19:48:26;20.20;82.00
22769;DHT22;13001;51.968;5.918;2023-08-01T19:50:54;20.20;82.10
22769;DHT22;13001;51.968;5.918;2023-08-01T19:53:22;20.20;82.20
22769;DHT22;13001;51.968;5.918;2023-08-01T19:55:51;20.10;82.30
22769;DHT22;13001;51.968;5.918;2023-08-01T19:58:19;20.10;82.50
22769;DHT22;13001;51.968;5.918;2023-08-01T20:00:46;20.10;82.70
22769;DHT22;13001;51.968;5.918;2023-08-01T20:03:15;20.10;82.60
22769;DHT22;13001;51.968;5.918;2023-08-01T20:05:43;20.10;82.80
22769;DHT22;13001;51.968;5.918;2023-08-01T20:08:10;20.00;82.90
22769;DHT22;13001;51.968;5.918;2023-08-01T20:10:38;20.00;83.20
22769;DHT22;13001;51.968;5.918;2023-08-01T20:13:05;20.00;83.20
22769;DHT22;13001;51.968;5.918;2023-08-01T20:15:33;20.00;83.30
22769;DHT22;13001;51.968;5.918;2023-08-01T20:18:01;20.00;83.30
22769;DHT22;13001;51.968;5.918;2023-08-01T20:20:29;20.00;84.00
22769;DHT22;13001;51.968;5.918;2023-08-01T20:22:56;20.00;83.30
22769;DHT22;13001;51.968;5.918;2023-08-01T20:25:24;20.00;83.40
22769;DHT22;13001;51.968;5.918;2023-08-01T20:27:51;20.00;84.30
22769;DHT22;13001;51.968;5.918;2023-08-01T20:30:19;20.00;83.50
22769;DHT22;13001;51.968;5.918;2023-08-01T20:32:46;20.00;83.70
22769;DHT22;13001;51.968;5.918;2023-08-01T20:35:14;19.90;83.90
22769;DHT22;13001;51.968;5.918;2023-08-01T20:37:41;19.90;83.90
22769;DHT22;13001;51.968;5.918;2023-08-01T20:40:09;19.90;84.10
22769;DHT22;13001;51.968;5.918;2023-08-01T20:42:36;19.90;84.30
22769;DHT22;13001;51.968;5.918;2023-08-01T20:45:05;19.90;84.60
22769;DHT22;13001;51.968;5.918;2023-08-01T20:47:32;19.90;84.70
22769;DHT22;13001;51.968;5.918;2023-08-01T20:50:02;19.90;84.90
22769;DHT22;13001;51.968;5.918;2023-08-01T20:52:31;19.80;85.00
22769;DHT22;13001;51.968;5.918;2023-08-01T20:54:58;19.80;85.20
22769;DHT22;13001;51.968;5.918;2023-08-01T20:57:26;19.80;85.30
22769;DHT22;13001;51.968;5.918;2023-08-01T20:59:53;19.80;85.50
22769;DHT22;13001;51.968;5.918;2023-08-01T21:02:21;19.70;85.60
22769;DHT22;13001;51.968;5.918;2023-08-01T21:04:48;19.70;85.80
22769;DHT22;13001;51.968;5.918;2023-08-01T21:07:19;19.60;86.10
22769;DHT22;13001;51.968;5.918;2023-08-01T21:09:47;19.50;86.40
22769;DHT22;13001;51.968;5.918;2023-08-01T21:12:15;19.50;86.70
22769;DHT22;13001;51.968;5.918;2023-08-01T21:14:42;19.40;87.00
22769;DHT22;13001;51.968;5.918;2023-08-01T21:17:10;19.30;87.30
22769;DHT22;13001;51.968;5.918;2023-08-01T21:19:37;19.20;87.60
22769;DHT22;13001;51.968;5.918;2023-08-01T21:22:07;19.20;87.90
22769;DHT22;13001;51.968;5.918;2023-08-01T21:24:35;19.10;88.10
22769;DHT22;13001;51.968;5.918;2023-08-01T21:27:03;19.00;88.40
22769;DHT22;13001;51.968;5.918;2023-08-01T21:29:30;19.00;88.70
22769;DHT22;13001;51.968;5.918;2023-08-01T21:31:58;18.90;88.90
22769;DHT22;13001;51.968;5.918;2023-08-01T21:34:25;18.90;89.10
22769;DHT22;13001;51.968;5.918;2023-08-01T21:36:53;18.80;89.30
22769;DHT22;13001;51.968;5.918;2023-08-01T21:39:20;18.70;89.60
22769;DHT22;13001;51.968;5.918;2023-08-01T21:41:48;18.70;89.90
22769;DHT22;13001;51.968;5.918;2023-08-01T21:44:15;18.60;90.00
22769;DHT22;13001;51.968;5.918;2023-08-01T21:46:43;18.50;90.10
22769;DHT22;13001;51.968;5.918;2023-08-01T21:49:11;18.50;90.00
22769;DHT22;13001;51.968;5.918;2023-08-01T21:51:39;18.50;90.30
22769;DHT22;13001;51.968;5.918;2023-08-01T21:54:06;18.40;90.40
22769;DHT22;13001;51.968;5.918;2023-08-01T21:56:34;18.40;90.50
22769;DHT22;13001;51.968;5.918;2023-08-01T21:59:02;18.30;90.60
22769;DHT22;13001;51.968;5.918;2023-08-01T22:01:29;18.30;90.70
22769;DHT22;13001;51.968;5.918;2023-08-01T22:03:57;18.20;90.80
22769;DHT22;13001;51.968;5.918;2023-08-01T22:06:24;18.20;90.90
22769;DHT22;13001;51.968;5.918;2023-08-01T22:08:52;18.20;91.00
22769;DHT22;13001;51.968;5.918;2023-08-01T22:11:19;18.10;91.10
22769;DHT22;13001;51.968;5.918;2023-08-01T22:13:47;18.20;91.20
22769;DHT22;13001;51.968;5.918;2023-08-01T22:16:14;18.10;91.30
22769;DHT22;13001;51.968;5.918;2023-08-01T22:18:42;18.10;91.40
22769;DHT22;13001;51.968;5.918;2023-08-01T22:21:09;18.10;91.50
22769;DHT22;13001;51.968;5.918;2023-08-01T22:23:37;18.10;91.60
22769;DHT22;13001;51.968;5.918;2023-08-01T22:26:06;18.10;91.70
22769;DHT22;13001;51.968;5.918;2023-08-01T22:28:33;18.00;91.70
22769;DHT22;13001;51.968;5.918;2023-08-01T22:31:01;18.00;91.90
22769;DHT22;13001;51.968;5.918;2023-08-01T22:33:31;18.00;92.10
22769;DHT22;13001;51.968;5.918;2023-08-01T22:35:59;18.00;92.20
22769;DHT22;13001;51.968;5.918;2023-08-01T22:38:26;18.10;92.20
22769;DHT22;13001;51.968;5.918;2023-08-01T22:40:54;18.10;92.20
22769;DHT22;13001;51.968;5.918;2023-08-01T22:43:21;18.20;92.30
22769;DHT22;13001;51.968;5.918;2023-08-01T22:45:56;18.20;92.30
22769;DHT22;13001;51.968;5.918;2023-08-01T22:48:23;18.20;92.30
22769;DHT22;13001;51.968;5.918;2023-08-01T22:50:51;18.20;92.30
22769;DHT22;13001;51.968;5.918;2023-08-01T22:53:18;18.30;92.40
22769;DHT22;13001;51.968;5.918;2023-08-01T22:55:46;18.40;92.40
22769;DHT22;13001;51.968;5.918;2023-08-01T22:58:14;18.40;92.30
22769;DHT22;13001;51.968;5.918;2023-08-01T23:00:42;18.50;92.20
22769;DHT22;13001;51.968;5.918;2023-08-01T23:03:10;18.60;92.20
22769;DHT22;13001;51.968;5.918;2023-08-01T23:05:37;18.60;92.10
22769;DHT22;13001;51.968;5.918;2023-08-01T23:08:05;18.60;91.90
22769;DHT22;13001;51.968;5.918;2023-08-01T23:10:32;18.70;91.90
22769;DHT22;13001;51.968;5.918;2023-08-01T23:13:00;18.70;91.90
22769;DHT22;13001;51.968;5.918;2023-08-01T23:15:29;18.70;91.80
22769;DHT22;13001;51.968;5.918;2023-08-01T23:17:57;18.70;91.80
22769;DHT22;13001;51.968;5.918;2023-08-01T23:20:24;18.70;91.80
22769;DHT22;13001;51.968;5.918;2023-08-01T23:22:52;18.70;91.90
22769;DHT22;13001;51.968;5.918;2023-08-01T23:25:19;18.60;92.00
22769;DHT22;13001;51.968;5.918;2023-08-01T23:27:47;18.50;92.10
22769;DHT22;13001;51.968;5.918;2023-08-01T23:30:14;18.40;92.20
22769;DHT22;13001;51.968;5.918;2023-08-01T23:32:42;18.30;92.40
22769;DHT22;13001;51.968;5.918;2023-08-01T23:35:09;18.20;92.60
22769;DHT22;13001;51.968;5.918;2023-08-01T23:37:37;18.10;92.70
22769;DHT22;13001;51.968;5.918;2023-08-01T23:40:05;18.10;92.80
22769;DHT22;13001;51.968;5.918;2023-08-01T23:42:33;18.10;92.90
22769;DHT22;13001;51.968;5.918;2023-08-01T23:45:00;18.10;93.10
22769;DHT22;13001;51.968;5.918;2023-08-01T23:47:28;18.00;93.20
22769;DHT22;13001;51.968;5.918;2023-08-01T23:49:55;18.10;93.40
22769;DHT22;13001;51.968;5.918;2023-08-01T23:52:23;18.00;93.30
22769;DHT22;13001;51.968;5.918;2023-08-01T23:54:50;18.00;93.40
22769;DHT22;13001;51.968;5.918;2023-08-01T23:57:19;17.90;93.50
22769;DHT22;13001;51.968;5.918;2023-08-01T23:59:46;17.90;93.60
